createdAt,value
2023-05-09T00:01:31.727Z,13.77
2023-05-09T00:03:59.787Z,13.20
2023-05-09T00:06:27.843Z,13.48
2023-05-09T00:08:56.037Z,13.50
2023-05-09T00:11:23.828Z,13.57
2023-05-09T00:13:52.106Z,14.15
2023-05-09T00:16:20.700Z,13.45
2023-05-09T00:18:48.408Z,13.40
2023-05-09T00:21:15.674Z,14.25
2023-05-09T00:23:43.292Z,14.80
2023-05-09T00:26:10.974Z,13.43
2023-05-09T00:28:41.093Z,13.80
2023-05-09T00:31:08.094Z,14.80
2023-05-09T00:33:35.809Z,13.95
2023-05-09T00:36:02.733Z,14.38
2023-05-09T00:38:30.193Z,13.27
2023-05-09T00:40:57.359Z,13.30
2023-05-09T00:43:24.808Z,13.60
2023-05-09T00:45:51.941Z,13.40
2023-05-09T00:48:19.702Z,12.55
2023-05-09T00:50:49.070Z,12.23
2023-05-09T00:53:16.275Z,13.25
2023-05-09T00:55:43.467Z,12.45
2023-05-09T00:58:11.403Z,13.40
2023-05-09T01:00:38.320Z,13.48
2023-05-09T01:03:06.408Z,14.65
2023-05-09T01:05:44.187Z,13.18
2023-05-09T01:08:41.820Z,13.63
2023-05-09T01:11:13.501Z,13.43
2023-05-09T01:13:49.884Z,14.48
2023-05-09T01:16:27.946Z,14.05
2023-05-09T01:19:20.483Z,14.57
2023-05-09T01:24:40.429Z,14.10
2023-05-09T01:27:21.464Z,14.27
2023-05-09T01:29:54.962Z,16.50
2023-05-09T01:32:28.090Z,14.73
2023-05-09T01:34:59.521Z,15.93
2023-05-09T01:37:31.679Z,15.20
2023-05-09T01:40:06.874Z,15.43
2023-05-09T01:42:41.835Z,14.43
2023-05-09T01:45:11.272Z,14.93
2023-05-09T01:47:40.766Z,14.98
2023-05-09T01:50:10.985Z,15.07
2023-05-09T01:52:40.196Z,15.18
2023-05-09T01:55:08.865Z,15.82
2023-05-09T01:57:36.718Z,15.27
2023-05-09T02:00:08.021Z,15.60
2023-05-09T02:02:40.542Z,16.20
2023-05-09T02:05:10.696Z,15.63
2023-05-09T02:07:39.585Z,16.23
2023-05-09T02:10:09.214Z,15.02
2023-05-09T02:12:38.306Z,15.13
2023-05-09T02:15:06.845Z,15.40
2023-05-09T02:17:35.065Z,15.90
2023-05-09T02:20:02.251Z,15.40
2023-05-09T02:22:29.260Z,15.40
2023-05-09T02:24:57.050Z,15.38
2023-05-09T02:27:24.873Z,15.88
2023-05-09T02:29:57.580Z,15.95
2023-05-09T02:32:29.338Z,15.57
2023-05-09T02:34:59.057Z,15.98
2023-05-09T02:37:27.009Z,15.77
2023-05-09T02:39:55.337Z,14.95
2023-05-09T02:42:25.554Z,15.32
2023-05-09T02:44:53.918Z,15.95
2023-05-09T02:47:22.284Z,16.02
2023-05-09T02:49:49.862Z,16.45
2023-05-09T02:52:17.157Z,16.05
2023-05-09T02:54:45.009Z,16.23
2023-05-09T02:57:12.725Z,16.48
2023-05-09T02:59:39.871Z,15.98
2023-05-09T03:02:07.161Z,16.15
2023-05-09T03:04:34.435Z,16.40
2023-05-09T03:07:02.083Z,15.07
2023-05-09T03:09:32.662Z,16.95
2023-05-09T03:12:00.970Z,17.55
2023-05-09T03:14:28.325Z,17.27
2023-05-09T03:16:55.471Z,16.40
2023-05-09T03:19:28.727Z,15.88
2023-05-09T03:21:56.131Z,16.00
2023-05-09T03:24:26.728Z,15.90
2023-05-09T03:26:54.482Z,16.85
2023-05-09T03:29:22.617Z,17.13
2023-05-09T03:31:49.590Z,17.73
2023-05-09T03:34:17.366Z,16.52
2023-05-09T03:36:44.928Z,16.25
2023-05-09T03:39:14.552Z,16.55
2023-05-09T03:41:44.713Z,15.85
2023-05-09T03:44:12.528Z,15.98
2023-05-09T03:46:40.039Z,16.70
2023-05-09T03:49:07.460Z,15.48
2023-05-09T03:51:35.785Z,15.88
2023-05-09T03:54:05.810Z,14.95
2023-05-09T03:56:33.305Z,15.25
2023-05-09T03:59:01.132Z,14.95
2023-05-09T04:01:29.155Z,16.20
2023-05-09T04:03:58.460Z,15.02
2023-05-09T04:06:27.113Z,14.85
2023-05-09T04:08:54.547Z,14.02
2023-05-09T04:11:21.815Z,14.15
2023-05-09T04:13:49.913Z,13.93
2023-05-09T04:16:30.887Z,12.98
2023-05-09T04:18:58.901Z,13.30
2023-05-09T04:21:26.376Z,14.27
2023-05-09T04:23:56.727Z,14.50
2023-05-09T04:26:31.670Z,13.10
2023-05-09T04:29:00.440Z,12.65
2023-05-09T04:31:29.294Z,12.52
2023-05-09T04:33:58.536Z,14.48
2023-05-09T04:36:27.799Z,14.27
2023-05-09T04:38:57.688Z,13.02
2023-05-09T04:41:27.748Z,13.50
2023-05-09T04:43:54.898Z,13.10
2023-05-09T04:46:25.715Z,13.15
2023-05-09T04:48:53.880Z,12.15
2023-05-09T04:51:21.518Z,11.95
2023-05-09T04:53:48.628Z,12.10
2023-05-09T04:56:19.088Z,11.87
2023-05-09T04:58:47.569Z,12.05
2023-05-09T05:01:16.946Z,11.07
2023-05-09T05:03:44.755Z,11.10
2023-05-09T05:06:12.827Z,11.98
2023-05-09T05:08:42.156Z,11.77
2023-05-09T05:11:10.200Z,11.75
2023-05-09T05:13:37.307Z,10.57
2023-05-09T05:16:05.403Z,10.13
2023-05-09T05:18:33.072Z,10.82
2023-05-09T05:21:00.717Z,10.57
2023-05-09T05:23:27.755Z,10.02
2023-05-09T05:25:56.182Z,8.98
2023-05-09T05:28:23.663Z,8.52
2023-05-09T05:30:51.607Z,9.63
2023-05-09T05:33:18.923Z,10.05
2023-05-09T05:35:46.771Z,8.48
2023-05-09T05:38:13.986Z,8.55
2023-05-09T05:40:41.897Z,8.57
2023-05-09T05:43:08.960Z,8.80
2023-05-09T05:45:38.608Z,7.50
2023-05-09T05:48:08.396Z,7.88
2023-05-09T05:50:36.816Z,7.57
2023-05-09T05:53:05.286Z,7.63
2023-05-09T05:55:33.620Z,7.78
2023-05-09T05:58:01.580Z,7.22
2023-05-09T06:00:30.002Z,7.90
2023-05-09T06:03:04.030Z,8.05
2023-05-09T06:08:23.140Z,7.88
2023-05-09T06:10:51.007Z,8.00
2023-05-09T06:13:18.349Z,6.85
2023-05-09T06:15:51.089Z,6.95
2023-05-09T06:18:18.505Z,6.85
2023-05-09T06:20:46.285Z,6.97
2023-05-09T06:23:14.221Z,7.10
2023-05-09T06:25:41.650Z,7.47
2023-05-09T06:28:09.602Z,7.47
2023-05-09T06:30:36.750Z,7.38
2023-05-09T06:33:03.812Z,6.85
2023-05-09T06:35:31.057Z,7.25
2023-05-09T06:37:57.994Z,5.57
2023-05-09T06:40:25.074Z,5.75
2023-05-09T06:42:52.322Z,4.93
2023-05-09T06:45:20.688Z,5.38
2023-05-09T06:47:48.151Z,4.85
2023-05-09T06:50:15.319Z,5.00
2023-05-09T06:52:42.548Z,5.60
2023-05-09T06:55:10.540Z,4.10
2023-05-09T06:57:40.170Z,3.97
2023-05-09T07:00:08.107Z,5.15
2023-05-09T07:02:35.509Z,5.28
2023-05-09T07:05:03.567Z,4.35
2023-05-09T07:07:30.859Z,3.20
2023-05-09T07:10:10.601Z,3.38
2023-05-09T07:12:39.701Z,3.38
2023-05-09T07:15:08.236Z,3.22
2023-05-09T07:17:35.762Z,2.63
2023-05-09T07:20:04.922Z,2.40
2023-05-09T07:22:34.110Z,2.60
2023-05-09T07:25:03.499Z,2.72
2023-05-09T07:27:31.242Z,2.55
2023-05-09T07:29:58.573Z,2.30
2023-05-09T07:32:28.783Z,2.05
2023-05-09T07:34:56.503Z,2.20
2023-05-09T07:37:23.672Z,1.98
2023-05-09T07:39:51.961Z,2.13
2023-05-09T07:42:18.983Z,2.20
2023-05-09T07:44:46.650Z,2.35
2023-05-09T07:47:14.152Z,2.50
2023-05-09T07:49:43.411Z,2.15
2023-05-09T07:52:10.698Z,2.13
2023-05-09T07:54:37.778Z,2.35
2023-05-09T07:57:05.276Z,2.13
2023-05-09T07:59:32.727Z,2.20
2023-05-09T08:01:59.672Z,3.17
2023-05-09T08:04:27.160Z,2.10
2023-05-09T08:06:54.287Z,2.10
2023-05-09T08:09:22.070Z,1.80
2023-05-09T08:11:49.288Z,1.75
2023-05-09T08:14:16.719Z,2.22
2023-05-09T08:16:43.615Z,2.05
2023-05-09T08:19:11.071Z,2.10
2023-05-09T08:21:37.957Z,2.00
2023-05-09T08:24:08.110Z,2.20
2023-05-09T08:26:35.812Z,2.30
2023-05-09T08:29:04.560Z,1.80
2023-05-09T08:31:31.638Z,1.77
2023-05-09T08:33:58.745Z,2.10
2023-05-09T08:36:25.706Z,1.92
2023-05-09T08:38:53.699Z,2.15
2023-05-09T08:41:28.059Z,1.83
2023-05-09T08:43:56.116Z,1.98
2023-05-09T08:46:28.661Z,2.17
2023-05-09T08:48:57.335Z,2.78
2023-05-09T08:51:24.866Z,1.70
2023-05-09T08:53:52.661Z,1.80
2023-05-09T08:56:20.099Z,1.80
2023-05-09T08:58:47.427Z,1.90
2023-05-09T09:01:14.425Z,2.95
2023-05-09T09:03:47.651Z,1.80
2023-05-09T09:06:16.890Z,1.80
2023-05-09T09:08:46.012Z,1.90
2023-05-09T09:11:17.545Z,2.05
2023-05-09T09:13:46.831Z,2.25
2023-05-09T09:16:21.133Z,2.08
2023-05-09T09:18:51.808Z,2.22
2023-05-09T09:21:20.426Z,2.25
2023-05-09T09:23:49.942Z,1.90
2023-05-09T09:26:17.136Z,1.80
2023-05-09T09:28:44.397Z,1.80
2023-05-09T09:31:25.225Z,1.80
2023-05-09T09:33:52.653Z,1.80
2023-05-09T09:36:30.527Z,2.08
2023-05-09T09:39:02.432Z,2.10
2023-05-09T09:41:37.171Z,1.73
2023-05-09T09:44:12.915Z,2.25
2023-05-09T09:46:55.329Z,2.53
2023-05-09T09:49:25.489Z,2.20
2023-05-09T09:51:58.367Z,2.20
2023-05-09T09:54:27.659Z,2.35
2023-05-09T09:56:55.184Z,2.03
2023-05-09T09:59:25.770Z,2.22
2023-05-09T10:02:07.525Z,2.10
2023-05-09T10:04:39.158Z,1.80
2023-05-09T10:07:08.986Z,2.22
2023-05-09T10:09:38.207Z,3.17
2023-05-09T10:12:07.479Z,1.90
2023-05-09T10:14:36.583Z,2.80
2023-05-09T10:17:05.532Z,2.00
2023-05-09T10:19:33.531Z,2.28
2023-05-09T10:22:08.298Z,2.60
2023-05-09T10:24:48.410Z,2.10
2023-05-09T10:27:21.759Z,1.67
2023-05-09T10:29:56.281Z,2.53
2023-05-09T10:32:52.701Z,2.40
2023-05-09T10:35:26.577Z,2.00
2023-05-09T10:37:59.110Z,1.88
2023-05-09T10:40:28.014Z,2.20
2023-05-09T10:42:55.132Z,2.33
2023-05-09T10:45:23.261Z,2.00
2023-05-09T10:47:53.341Z,2.10
2023-05-09T10:50:21.529Z,2.10
2023-05-09T10:53:04.081Z,1.90
2023-05-09T10:56:00.678Z,1.95
2023-05-09T10:58:30.088Z,1.90
2023-05-09T11:01:00.633Z,2.38
2023-05-09T11:03:29.671Z,2.27
2023-05-09T11:05:58.441Z,1.77
2023-05-09T11:08:30.318Z,1.90
2023-05-09T11:11:03.881Z,3.08
2023-05-09T11:13:32.635Z,2.20
2023-05-09T11:15:59.761Z,2.05
2023-05-09T11:18:26.679Z,2.10
2023-05-09T11:20:54.369Z,2.22
2023-05-09T11:23:26.088Z,2.35
2023-05-09T11:25:54.264Z,1.98
2023-05-09T11:28:32.854Z,1.77
2023-05-09T11:31:16.800Z,1.70
2023-05-09T11:33:47.154Z,1.83
2023-05-09T11:36:20.581Z,2.03
2023-05-09T11:38:48.042Z,2.25
2023-05-09T11:41:16.001Z,2.05
2023-05-09T11:43:45.017Z,2.40
2023-05-09T11:46:12.965Z,1.60
2023-05-09T11:48:42.110Z,1.70
2023-05-09T11:51:17.127Z,2.00
2023-05-09T11:53:50.669Z,3.38
2023-05-09T11:56:18.087Z,1.50
2023-05-09T11:58:46.858Z,1.95
2023-05-09T12:01:14.626Z,2.15
2023-05-09T12:03:45.465Z,2.20
2023-05-09T12:06:20.011Z,1.80
2023-05-09T12:08:47.691Z,1.73
2023-05-09T12:11:15.428Z,1.63
2023-05-09T12:13:50.179Z,2.00
2023-05-09T12:16:19.003Z,1.85
2023-05-09T12:18:54.995Z,1.77
2023-05-09T12:21:23.555Z,2.20
2023-05-09T12:23:52.559Z,2.13
2023-05-09T12:26:22.271Z,1.90
2023-05-09T12:28:50.008Z,2.42
2023-05-09T12:31:18.932Z,2.40
2023-05-09T12:33:46.996Z,1.80
2023-05-09T12:36:15.952Z,1.73
2023-05-09T12:38:54.009Z,1.65
2023-05-09T12:41:37.065Z,2.30
2023-05-09T12:44:07.989Z,2.17
2023-05-09T12:46:37.532Z,1.80
2023-05-09T12:49:05.477Z,2.00
2023-05-09T12:51:33.092Z,2.10
2023-05-09T12:54:05.125Z,1.88
2023-05-09T12:56:35.331Z,2.08
2023-05-09T12:59:02.740Z,2.03
2023-05-09T13:01:30.988Z,1.67
2023-05-09T13:04:03.743Z,2.25
2023-05-09T13:06:31.831Z,2.20
2023-05-09T13:09:06.023Z,1.58
2023-05-09T13:11:33.811Z,1.92
2023-05-09T13:14:02.381Z,1.75
2023-05-09T13:16:29.894Z,1.75
2023-05-09T13:18:56.981Z,1.60
2023-05-09T13:21:24.472Z,1.60
2023-05-09T13:23:52.112Z,1.38
2023-05-09T13:26:19.685Z,1.95
2023-05-09T13:28:46.731Z,1.50
2023-05-09T13:31:15.148Z,2.10
2023-05-09T13:33:42.947Z,2.08
2023-05-09T13:36:10.590Z,2.30
2023-05-09T13:38:40.947Z,1.70
2023-05-09T13:41:08.701Z,1.98
2023-05-09T13:43:36.742Z,1.77
2023-05-09T13:46:04.611Z,2.30
2023-05-09T13:48:31.752Z,2.40
2023-05-09T13:51:00.398Z,1.73
2023-05-09T13:53:27.684Z,1.88
2023-05-09T13:55:55.436Z,1.77
2023-05-09T13:58:22.809Z,1.60
2023-05-09T14:00:50.412Z,1.80
2023-05-09T14:03:17.374Z,1.60
2023-05-09T14:05:45.022Z,2.15
2023-05-09T14:08:12.226Z,2.55
2023-05-09T14:10:40.035Z,1.80
2023-05-09T14:13:08.523Z,1.80
2023-05-09T14:15:36.092Z,1.98
2023-05-09T14:18:03.166Z,1.80
2023-05-09T14:20:30.947Z,2.13
2023-05-09T14:23:00.719Z,1.90
2023-05-09T14:25:28.658Z,2.22
2023-05-09T14:27:55.520Z,1.98
2023-05-09T14:30:23.403Z,2.40
2023-05-09T14:32:50.941Z,1.70
2023-05-09T14:35:18.713Z,2.10
2023-05-09T14:37:46.025Z,1.70
2023-05-09T14:40:13.444Z,2.10
2023-05-09T14:42:41.502Z,1.95
2023-05-09T14:45:12.134Z,2.30
2023-05-09T14:47:41.184Z,1.70
2023-05-09T14:50:11.646Z,1.65
2023-05-09T14:52:38.782Z,2.08
2023-05-09T14:55:07.442Z,2.20
2023-05-09T14:57:34.951Z,1.83
2023-05-09T15:00:16.717Z,2.00
2023-05-09T15:02:48.413Z,2.05
2023-05-09T15:05:16.861Z,1.67
2023-05-09T15:07:44.150Z,1.90
2023-05-09T15:10:11.464Z,1.90
2023-05-09T15:12:38.374Z,1.77
2023-05-09T15:15:16.813Z,2.22
2023-05-09T15:17:45.418Z,1.52
2023-05-09T15:20:15.661Z,1.33
2023-05-09T15:22:44.130Z,1.67
2023-05-09T15:25:11.771Z,2.00
2023-05-09T15:27:39.561Z,1.98
2023-05-09T15:30:08.286Z,2.15
2023-05-09T15:32:38.118Z,1.85
2023-05-09T15:35:07.001Z,1.67
2023-05-09T15:37:35.859Z,1.90
2023-05-09T15:40:03.665Z,1.70
2023-05-09T15:42:31.234Z,1.80
2023-05-09T15:44:58.474Z,2.10
2023-05-09T15:47:26.337Z,2.00
2023-05-09T15:50:00.010Z,1.77
2023-05-09T15:52:28.644Z,1.95
2023-05-09T15:54:58.579Z,1.90
2023-05-09T15:57:27.439Z,1.83
2023-05-09T15:59:56.318Z,2.17
2023-05-09T16:02:25.738Z,1.88
2023-05-09T16:04:59.005Z,1.90
2023-05-09T16:07:27.728Z,1.85
2023-05-09T16:09:56.413Z,2.08
2023-05-09T16:12:25.760Z,1.70
2023-05-09T16:14:53.337Z,1.90
2023-05-09T16:17:20.288Z,1.88
2023-05-09T16:19:47.397Z,1.95
2023-05-09T16:22:14.847Z,2.20
2023-05-09T16:24:42.044Z,2.35
2023-05-09T16:27:09.496Z,2.33
2023-05-09T16:29:36.915Z,1.75
2023-05-09T16:32:04.121Z,2.13
2023-05-09T16:34:32.034Z,1.73
2023-05-09T16:36:59.179Z,1.65
2023-05-09T16:39:28.079Z,1.88
2023-05-09T16:41:55.638Z,1.70
2023-05-09T16:44:25.910Z,1.70
2023-05-09T16:46:53.180Z,2.20
2023-05-09T16:49:21.116Z,2.25
2023-05-09T16:51:48.386Z,2.22
2023-05-09T16:54:16.105Z,2.00
2023-05-09T16:56:43.390Z,1.85
2023-05-09T16:59:10.949Z,1.80
2023-05-09T17:01:38.047Z,2.10
2023-05-09T17:04:07.005Z,2.20
2023-05-09T17:06:36.853Z,2.30
2023-05-09T17:09:05.521Z,1.40
2023-05-09T17:11:33.552Z,1.77
2023-05-09T17:14:02.939Z,1.83
2023-05-09T17:16:30.030Z,1.95
2023-05-09T17:18:57.768Z,2.80
2023-05-09T17:21:25.228Z,2.58
2023-05-09T17:23:54.131Z,2.72
2023-05-09T17:26:21.721Z,2.42
2023-05-09T17:28:49.749Z,2.58
2023-05-09T17:31:16.928Z,2.20
2023-05-09T17:33:44.434Z,2.13
2023-05-09T17:36:11.271Z,2.42
2023-05-09T17:38:38.674Z,2.72
2023-05-09T17:41:05.885Z,2.33
2023-05-09T17:43:33.138Z,2.83
2023-05-09T17:46:01.334Z,2.28
2023-05-09T17:48:29.272Z,2.50
2023-05-09T17:50:56.564Z,2.38
2023-05-09T17:53:24.123Z,2.88
2023-05-09T17:55:51.583Z,2.80
2023-05-09T17:58:19.986Z,2.85
2023-05-09T18:00:47.134Z,2.70
2023-05-09T18:03:14.629Z,2.67
2023-05-09T18:05:41.923Z,2.83
2023-05-09T18:08:09.046Z,3.22
2023-05-09T18:10:36.193Z,2.75
2023-05-09T18:13:03.629Z,3.22
2023-05-09T18:15:31.138Z,3.03
2023-05-09T18:17:59.199Z,2.70
2023-05-09T18:20:26.473Z,2.50
2023-05-09T18:22:54.434Z,2.75
2023-05-09T18:25:21.686Z,2.40
2023-05-09T18:27:49.095Z,2.88
2023-05-09T18:30:16.687Z,3.38
2023-05-09T18:32:44.233Z,2.28
2023-05-09T18:35:12.781Z,2.72
2023-05-09T18:37:40.391Z,3.83
2023-05-09T18:40:10.664Z,3.00
2023-05-09T18:42:38.313Z,2.90
2023-05-09T18:45:05.952Z,3.60
2023-05-09T18:47:33.523Z,3.00
2023-05-09T18:50:12.429Z,3.30
2023-05-09T18:52:40.603Z,3.20
2023-05-09T18:55:07.980Z,3.20
2023-05-09T18:57:35.564Z,3.30
2023-05-09T19:00:03.609Z,3.47
2023-05-09T19:02:31.284Z,3.63
2023-05-09T19:04:58.300Z,3.08
2023-05-09T19:07:26.461Z,4.18
2023-05-09T19:09:53.303Z,4.90
2023-05-09T19:12:21.057Z,4.28
2023-05-09T19:14:48.204Z,3.60
2023-05-09T19:17:15.719Z,3.80
2023-05-09T19:19:42.862Z,3.85
2023-05-09T19:22:10.457Z,4.50
2023-05-09T19:24:37.768Z,4.20
2023-05-09T19:27:06.798Z,3.67
2023-05-09T19:29:34.626Z,4.55
2023-05-09T19:32:02.056Z,3.95
2023-05-09T19:34:30.420Z,3.60
2023-05-09T19:36:57.675Z,4.20
2023-05-09T19:39:24.598Z,4.50
2023-05-09T19:41:52.224Z,4.20
2023-05-09T19:44:19.012Z,5.18
2023-05-09T19:46:46.820Z,6.40
2023-05-09T19:49:17.185Z,5.07
2023-05-09T19:51:45.800Z,5.30
2023-05-09T19:54:14.200Z,5.57
2023-05-09T19:56:41.956Z,4.97
2023-05-09T19:59:08.996Z,5.07
2023-05-09T20:01:36.477Z,6.00
2023-05-09T20:04:03.510Z,5.88
2023-05-09T20:06:31.142Z,5.40
2023-05-09T20:08:58.069Z,5.63
2023-05-09T20:11:25.310Z,6.60
2023-05-09T20:13:52.667Z,5.85
2023-05-09T20:16:21.300Z,5.97
2023-05-09T20:18:50.005Z,6.05
2023-05-09T20:21:18.876Z,6.15
2023-05-09T20:23:46.054Z,5.95
2023-05-09T20:26:13.817Z,6.38
2023-05-09T20:28:41.141Z,5.00
2023-05-09T20:31:08.541Z,5.85
2023-05-09T20:33:35.576Z,6.38
2023-05-09T20:36:03.070Z,6.38
2023-05-09T20:38:29.974Z,6.32
2023-05-09T20:40:57.137Z,6.90
2023-05-09T20:43:24.590Z,7.47
2023-05-09T20:45:52.210Z,6.72
2023-05-09T20:48:22.968Z,6.22
2023-05-09T20:50:50.318Z,6.73
2023-05-09T20:53:17.345Z,6.35
2023-05-09T20:55:44.501Z,6.03
2023-05-09T20:58:14.858Z,6.97
2023-05-09T21:00:42.528Z,7.55
2023-05-09T21:03:10.214Z,7.68
2023-05-09T21:05:37.766Z,8.00
2023-05-09T21:08:05.427Z,7.45
2023-05-09T21:10:33.023Z,7.68
2023-05-09T21:13:00.181Z,6.75
2023-05-09T21:15:27.652Z,8.00
2023-05-09T21:17:55.038Z,7.78
2023-05-09T21:20:22.268Z,7.70
2023-05-09T21:22:49.855Z,7.35
2023-05-09T21:25:18.129Z,6.43
2023-05-09T21:27:45.321Z,6.95
2023-05-09T21:30:12.679Z,8.48
2023-05-09T21:32:39.655Z,7.82
2023-05-09T21:35:11.104Z,8.15
2023-05-09T21:37:38.113Z,7.70
2023-05-09T21:40:06.094Z,7.70
2023-05-09T21:42:33.011Z,6.82
2023-05-09T21:45:00.454Z,8.70
2023-05-09T21:47:27.641Z,8.30
2023-05-09T21:49:55.228Z,6.43
2023-05-09T21:52:23.577Z,7.55
2023-05-09T21:54:51.475Z,7.85
2023-05-09T21:57:18.366Z,7.88
2023-05-09T21:59:45.885Z,8.20
2023-05-09T22:02:13.333Z,7.72
2023-05-09T22:04:41.077Z,8.10
2023-05-09T22:07:07.921Z,7.55
2023-05-09T22:09:35.791Z,7.70
2023-05-09T22:12:02.666Z,7.80
2023-05-09T22:14:30.139Z,7.53
2023-05-09T22:16:57.090Z,8.63
2023-05-09T22:19:25.191Z,8.95
2023-05-09T22:21:52.116Z,8.40
2023-05-09T22:24:19.561Z,9.77
2023-05-09T22:26:46.711Z,8.90
2023-05-09T22:29:16.636Z,8.75
2023-05-09T22:31:44.712Z,9.55
2023-05-09T22:34:11.922Z,8.65
2023-05-09T22:36:38.828Z,8.02
2023-05-09T22:39:06.546Z,8.38
2023-05-09T22:41:33.536Z,8.77
2023-05-09T22:44:00.906Z,8.15
2023-05-09T22:46:28.197Z,7.72
2023-05-09T22:48:55.529Z,7.85
2023-05-09T22:51:22.749Z,7.93
2023-05-09T22:53:49.881Z,8.57
2023-05-09T22:56:17.092Z,9.93
2023-05-09T22:58:44.199Z,8.20
2023-05-09T23:01:11.546Z,8.13
2023-05-09T23:03:38.664Z,8.60
2023-05-09T23:06:06.391Z,9.35
2023-05-09T23:08:34.371Z,7.18
2023-05-09T23:11:01.275Z,7.47
2023-05-09T23:13:28.838Z,7.60
2023-05-09T23:15:55.859Z,7.68
2023-05-09T23:18:23.916Z,8.52
2023-05-09T23:20:51.147Z,8.63
2023-05-09T23:23:18.304Z,8.30
2023-05-09T23:25:49.160Z,7.90
2023-05-09T23:28:28.952Z,8.73
2023-05-09T23:30:59.829Z,8.70
2023-05-09T23:33:35.091Z,8.93
2023-05-09T23:36:06.264Z,8.52
2023-05-09T23:38:41.495Z,8.05
2023-05-09T23:41:12.765Z,8.32
2023-05-09T23:46:18.696Z,7.90
2023-05-09T23:48:53.884Z,8.13
2023-05-09T23:51:24.872Z,8.32
2023-05-09T23:54:00.114Z,8.27
2023-05-09T23:56:31.590Z,8.13
2023-05-09T23:59:06.789Z,8.77
